Time;durP1;ratioP1;P1;durP2;ratioP2;P2;SDS_P1;SDS_P2;PMS_P1;PMS_P2;Temp;Humidity;BMP_temperature;BMP_pressure;BME280_temperature;BME280_humidity;BME280_pressure;Samples;Min_cycle;Max_cycle;Signal;HPM_P1;HPM_P2
2023/05/04 00:00:10;;;;;;;8.47;2.80;;;8.30;99.90;;;9.00;100.00;98658.31;4925168;29;20843;-80
2023/05/04 00:02:39;;;;;;;5.60;2.93;;;8.30;99.90;;;8.97;100.00;98651.66;4925294;29;20467;-80
2023/05/04 00:05:11;;;;;;;3.60;2.93;;;8.30;99.90;;;8.91;100.00;98651.47;4921155;29;20498;-80
2023/05/04 00:07:39;;;;;;;5.33;2.50;;;8.30;99.90;;;8.82;100.00;98644.59;4925655;29;20474;-80
2023/05/04 00:10:11;;;;;;;7.13;2.70;;;8.20;99.90;;;8.76;100.00;98655.69;4924809;29;20526;-79
2023/05/04 00:12:41;;;;;;;7.20;2.67;;;8.20;99.90;;;8.81;100.00;98651.63;4923269;29;20498;-80
2023/05/04 00:15:10;;;;;;;5.63;2.73;;;8.10;99.90;;;8.82;100.00;98642.00;4924911;29;20488;-80
2023/05/04 00:17:39;;;;;;;9.40;3.07;;;8.10;99.90;;;8.83;100.00;98646.25;4925187;29;21033;-80
2023/05/04 00:20:12;;;;;;;3.73;2.37;;;8.10;99.90;;;8.81;100.00;98641.22;4923979;29;20828;-79
2023/05/04 00:22:41;;;;;;;8.27;2.67;;;8.10;99.90;;;8.82;100.00;98644.59;4922716;29;20477;-81
2023/05/04 00:25:10;;;;;;;4.73;2.57;;;8.10;99.90;;;8.81;100.00;98640.38;4922697;29;20502;-80
2023/05/04 00:27:42;;;;;;;3.00;2.50;;;8.10;99.90;;;8.79;100.00;98647.53;4925287;29;20525;-80
2023/05/04 00:30:15;;;;;;;5.97;2.83;;;8.10;99.90;;;8.80;100.00;98643.97;4922101;29;20537;-80
2023/05/04 00:32:44;;;;;;;3.43;2.33;;;8.00;99.90;;;8.73;100.00;98637.75;4924437;29;20474;-80
2023/05/04 00:35:13;;;;;;;3.03;2.50;;;8.00;99.90;;;8.68;100.00;98633.00;4921987;29;21013;-79
2023/05/04 00:37:44;;;;;;;5.50;2.90;;;8.00;99.90;;;8.67;100.00;98633.19;4924677;29;20506;-79
2023/05/04 00:40:13;;;;;;;3.17;2.30;;;8.00;99.90;;;8.61;100.00;98632.03;4922806;29;20537;-81
2023/05/04 00:42:43;;;;;;;5.17;2.47;;;7.90;99.90;;;8.57;100.00;98626.31;4926755;29;20478;-80
2023/05/04 00:45:11;;;;;;;5.30;2.80;;;7.90;99.90;;;8.62;100.00;98627.63;4928297;29;20602;-80
2023/05/04 00:47:44;;;;;;;5.27;3.50;;;7.90;99.90;;;8.60;100.00;98630.41;4927268;29;20467;-80
2023/05/04 00:50:13;;;;;;;3.10;2.43;;;7.90;99.90;;;8.57;100.00;98623.72;4927035;29;20526;-80
2023/05/04 00:52:45;;;;;;;5.33;3.23;;;7.80;99.90;;;8.50;100.00;98617.50;4926940;29;20591;-80
2023/05/04 00:55:14;;;;;;;5.13;2.50;;;7.80;99.90;;;8.48;100.00;98618.66;4927470;29;20562;-80
2023/05/04 00:57:45;;;;;;;3.13;2.40;;;7.80;99.90;;;8.39;100.00;98615.22;4927290;29;20572;-79
2023/05/04 01:00:15;;;;;;;3.10;2.53;;;7.70;99.90;;;8.40;100.00;98627.25;4928541;29;20987;-80
2023/05/04 01:02:45;;;;;;;5.10;2.60;;;7.70;99.90;;;8.37;100.00;98621.53;4927210;29;20466;-79
2023/05/04 01:05:14;;;;;;;3.40;2.50;;;7.60;99.90;;;8.32;100.00;98619.44;4928286;29;20581;-80
2023/05/04 01:07:58;;;;;;;3.00;2.10;;;7.60;99.90;;;8.19;100.00;98613.81;4927618;29;20470;-80
2023/05/04 01:10:38;;;;;;;4.77;2.43;;;7.50;99.90;;;8.26;100.00;98611.41;4926029;29;20526;-80
2023/05/04 01:13:12;;;;;;;4.13;2.93;;;7.50;99.90;;;8.28;100.00;98610.28;4927737;29;20473;-80
2023/05/04 01:15:43;;;;;;;3.60;2.80;;;7.50;99.90;;;8.27;100.00;98606.03;4928069;29;20492;-79
2023/05/04 01:18:12;;;;;;;5.30;3.30;;;7.50;99.90;;;8.23;100.00;98603.88;4927122;29;20474;-80
2023/05/04 01:20:42;;;;;;;12.63;2.80;;;7.50;99.90;;;8.28;100.00;98607.69;4927712;29;21032;-80
2023/05/04 01:23:13;;;;;;;5.30;2.60;;;7.50;99.90;;;8.19;100.00;98605.97;4928002;29;20473;-79
2023/05/04 01:25:54;;;;;;;8.87;3.00;;;7.50;99.90;;;8.13;100.00;98598.81;4929055;29;20533;-80
2023/05/04 01:28:33;;;;;;;4.27;2.90;;;7.40;99.90;;;8.15;100.00;98601.28;4927004;29;20506;-81
2023/05/04 01:31:07;;;;;;;2.43;2.10;;;7.40;99.90;;;8.20;100.00;98602.41;4927591;29;20503;-79
2023/05/04 01:33:37;;;;;;;4.03;2.40;;;7.40;99.90;;;8.18;100.00;98601.78;4926671;29;20466;-80
2023/05/04 01:36:08;;;;;;;2.60;2.17;;;7.40;99.90;;;8.18;100.00;98595.75;4927466;29;20474;-80
2023/05/04 01:38:38;;;;;;;3.43;2.57;;;7.40;99.90;;;8.15;100.00;98591.66;4926853;29;21033;-80
2023/05/04 01:41:07;;;;;;;4.23;2.10;;;7.40;99.90;;;8.07;100.00;98596.84;4929054;29;20470;-80
2023/05/04 01:43:36;;;;;;;3.80;2.53;;;7.30;99.90;;;7.87;100.00;98592.88;4925818;29;20475;-80
2023/05/04 01:46:04;;;;;;;3.10;2.23;;;7.30;99.90;;;7.82;100.00;98602.91;4927440;29;20573;-80
2023/05/04 01:48:33;;;;;;;4.40;2.50;;;7.30;99.90;;;7.81;100.00;98603.91;4928102;29;21032;-79
2023/05/04 01:51:03;;;;;;;3.80;2.47;;;7.20;99.90;;;7.78;100.00;98604.19;4923585;29;20849;-80
2023/05/04 01:53:31;;;;;;;7.90;2.77;;;7.10;99.90;;;7.78;100.00;98598.97;4923726;29;21035;-79
2023/05/04 01:56:02;;;;;;;3.60;2.60;;;7.10;99.90;;;7.77;100.00;98607.78;4924273;29;20468;-81
2023/05/04 01:58:30;;;;;;;3.40;2.57;;;7.10;99.90;;;7.80;100.00;98603.09;4923889;29;20502;-80
2023/05/04 02:00:59;;;;;;;12.03;2.90;;;7.10;99.90;;;7.78;100.00;98604.19;4925429;29;21108;-80
2023/05/04 02:03:28;;;;;;;3.70;2.60;;;7.10;99.90;;;7.71;100.00;98601.41;4925859;29;21016;-81
2023/05/04 02:05:57;;;;;;;3.03;2.50;;;7.00;99.90;;;7.73;100.00;98593.44;4927789;29;20592;-80
2023/05/04 02:08:26;;;;;;;2.30;2.10;;;7.00;99.90;;;7.67;100.00;98596.69;4926159;29;20485;-80
2023/05/04 02:10:55;;;;;;;3.60;2.07;;;7.00;99.90;;;7.63;100.00;98593.56;4924248;29;20518;-80
2023/05/04 02:13:25;;;;;;;3.77;2.60;;;7.00;99.90;;;7.51;100.00;98593.00;4925156;29;20471;-80
2023/05/04 02:15:54;;;;;;;6.80;2.97;;;6.90;99.90;;;7.51;100.00;98593.00;4923264;29;20682;-80
2023/05/04 02:18:23;;;;;;;4.03;2.50;;;6.90;99.90;;;7.52;100.00;98586.03;4925709;29;20489;-80
2023/05/04 02:20:52;;;;;;;4.30;2.43;;;6.90;99.90;;;7.47;100.00;98585.66;4923705;29;20470;-79
2023/05/04 02:23:21;;;;;;;4.17;2.50;;;6.80;99.90;;;7.48;100.00;98588.13;4924252;29;20504;-79
2023/05/04 02:25:49;;;;;;;6.17;2.77;;;6.80;99.90;;;7.50;100.00;98577.53;4925247;29;20540;-80
2023/05/04 02:28:18;;;;;;;4.43;2.77;;;6.80;99.90;;;7.50;100.00;98575.75;4922309;29;20819;-80
2023/05/04 02:30:48;;;;;;;4.47;2.80;;;6.80;99.90;;;7.47;100.00;98581.28;4922216;29;20467;-79
2023/05/04 02:33:17;;;;;;;3.67;2.50;;;6.80;99.90;;;7.38;100.00;98584.81;4922095;29;21527;-79
2023/05/04 02:35:46;;;;;;;2.80;2.17;;;6.80;99.90;;;7.33;100.00;98584.44;4924943;29;20502;-80
2023/05/04 02:38:15;;;;;;;3.93;2.40;;;6.70;99.90;;;7.33;100.00;98588.81;4923082;29;20498;-80
2023/05/04 02:40:43;;;;;;;6.80;2.30;;;6.70;99.90;;;7.35;100.00;98590.31;4924454;29;20470;-80
2023/05/04 02:43:12;;;;;;;3.27;2.87;;;6.70;99.90;;;7.37;100.00;98590.16;4923624;29;20486;-79
2023/05/04 02:45:41;;;;;;;7.03;2.70;;;6.70;99.90;;;7.34;100.00;98578.28;4924971;29;21704;-82
2023/05/04 02:48:11;;;;;;;4.30;2.53;;;6.70;99.90;;;7.34;100.00;98580.88;4925987;29;20447;-79
2023/05/04 02:50:40;;;;;;;2.97;2.10;;;6.60;99.90;;;7.31;100.00;98585.56;4926580;29;20909;-79
2023/05/04 02:53:10;;;;;;;2.97;2.10;;;6.60;99.90;;;7.33;100.00;98584.44;4926286;29;20732;-79
2023/05/04 02:55:38;;;;;;;2.93;2.30;;;6.60;99.90;;;7.36;100.00;98578.91;4924025;29;20474;-79
2023/05/04 02:58:07;;;;;;;3.90;2.57;;;6.70;99.90;;;7.37;100.00;98574.53;4924682;29;20898;-80
2023/05/04 03:00:36;;;;;;;4.67;2.67;;;6.60;99.90;;;7.43;100.00;98579.94;4924484;29;20471;-79
2023/05/04 03:03:05;;;;;;;9.00;2.73;;;6.60;99.90;;;7.42;100.00;98578.31;4923801;29;20466;-79
2023/05/04 03:05:36;;;;;;;2.90;2.23;;;6.60;99.90;;;7.43;100.00;98589.53;4926093;29;20469;-79
2023/05/04 03:08:06;;;;;;;8.20;3.10;;;6.70;99.90;;;7.45;100.00;98588.44;4924186;29;20502;-79
2023/05/04 03:10:34;;;;;;;3.20;2.20;;;6.70;99.90;;;7.42;100.00;98588.72;4925034;29;20470;-80
2023/05/04 03:13:04;;;;;;;5.03;2.37;;;6.70;99.90;;;7.42;100.00;98583.53;4926154;29;20462;-79
2023/05/04 03:15:33;;;;;;;5.97;2.70;;;6.60;99.90;;;7.42;100.00;98588.72;4926035;29;20481;-80
2023/05/04 03:18:02;;;;;;;4.17;2.47;;;6.70;99.90;;;7.46;100.00;98584.03;4924043;29;20475;-80
2023/05/04 03:20:31;;;;;;;4.50;2.40;;;6.70;99.90;;;7.46;100.00;98584.84;4921438;29;20512;-79
2023/05/04 03:23:02;;;;;;;3.10;2.33;;;6.70;99.90;;;7.50;100.00;98580.94;4923701;29;20519;-79
2023/05/04 03:25:30;;;;;;;2.93;2.47;;;6.70;99.90;;;7.46;100.00;98582.22;4924460;29;20478;-79
2023/05/04 03:27:59;;;;;;;3.03;2.30;;;6.70;99.90;;;7.45;100.00;98566.78;4922151;29;20565;-80
2023/05/04 03:30:29;;;;;;;3.27;2.70;;;6.70;99.90;;;7.44;100.00;98568.56;4905372;29;20478;-80
2023/05/04 03:32:58;;;;;;;3.00;2.13;;;6.70;99.90;;;7.41;100.00;98570.66;4921338;29;20473;-80
2023/05/04 03:35:27;;;;;;;8.77;2.70;;;6.60;99.90;;;7.37;100.00;98567.56;4923234;29;20467;-80
2023/05/04 03:37:55;;;;;;;5.97;2.77;;;6.60;99.90;;;7.34;100.00;98567.88;4922420;29;20566;-80
2023/05/04 03:40:25;;;;;;;4.97;2.80;;;6.60;99.90;;;7.32;100.00;98572.41;4923974;29;20990;-80
2023/05/04 03:42:54;;;;;;;9.80;2.70;;;6.60;99.90;;;7.34;100.00;98578.28;4923772;29;20487;-79
2023/05/04 03:45:27;;;;;;;3.87;2.43;;;6.60;99.90;;;7.33;100.00;98578.41;4923517;29;20471;-80
2023/05/04 03:47:56;;;;;;;3.53;2.60;;;6.60;99.90;;;7.31;100.00;98573.38;4922285;29;20569;-80
2023/05/04 03:50:25;;;;;;;5.50;2.40;;;6.60;99.90;;;7.27;100.00;98569.44;4924360;29;20509;-80
2023/05/04 03:52:53;;;;;;;4.00;2.10;;;6.50;99.90;;;7.24;100.00;98563.72;4924169;29;20469;-79
2023/05/04 03:55:22;;;;;;;7.63;3.20;;;6.60;99.90;;;7.19;100.00;98566.78;4922562;29;20589;-79
2023/05/04 03:57:52;;;;;;;3.13;2.33;;;6.50;99.90;;;7.19;100.00;98565.97;4922661;29;20474;-79
2023/05/04 04:00:21;;;;;;;3.60;2.60;;;6.50;99.90;;;7.20;100.00;98565.81;4921690;29;20474;-80
2023/05/04 04:02:50;;;;;;;2.30;2.10;;;6.50;99.90;;;7.22;100.00;98563.88;4924885;29;20474;-80
2023/05/04 04:05:19;;;;;;;4.70;2.50;;;6.50;99.90;;;7.21;100.00;98567.47;4924648;29;20470;-82
2023/05/04 04:07:47;;;;;;;2.83;2.50;;;6.40;99.90;;;7.20;100.00;98567.59;4926422;29;20532;-80
2023/05/04 04:10:16;;;;;;;2.80;2.27;;;6.40;99.90;;;7.20;100.00;98559.81;4922875;29;20467;-80
2023/05/04 04:12:45;;;;;;;3.53;2.63;;;6.40;99.90;;;7.19;100.00;98560.75;4924313;29;20474;-79
2023/05/04 04:15:15;;;;;;;3.60;2.20;;;6.40;99.90;;;7.18;100.00;98559.97;4921852;29;20470;-79
2023/05/04 04:17:43;;;;;;;2.83;2.50;;;6.40;99.90;;;7.17;100.00;98563.53;4923731;29;20553;-80
2023/05/04 04:20:13;;;;;;;2.47;2.27;;;6.40;99.90;;;7.18;100.00;98565.16;4921617;29;20474;-79
2023/05/04 04:22:42;;;;;;;4.73;2.30;;;6.40;99.90;;;7.18;100.00;98565.16;4923830;29;20485;-79
2023/05/04 04:25:11;;;;;;;6.10;2.70;;;6.40;99.90;;;7.19;100.00;98565.97;4922359;29;20479;-80
2023/05/04 04:27:40;;;;;;;5.50;2.60;;;6.40;99.90;;;7.20;100.00;98562.41;4922786;29;20535;-80
2023/05/04 04:30:12;;;;;;;6.20;2.67;;;6.40;99.90;;;7.18;100.00;98574.75;4920052;29;20526;-79
2023/05/04 04:32:42;;;;;;;5.63;3.13;;;6.40;99.90;;;7.17;100.00;98573.13;4925204;29;20517;-81
2023/05/04 04:35:11;;;;;;;5.00;2.43;;;6.40;99.90;;;7.17;100.00;98576.53;4925219;29;20462;-80
2023/05/04 04:37:39;;;;;;;3.20;2.50;;;6.40;99.90;;;7.14;100.00;98582.03;4924675;29;20494;-80
2023/05/04 04:40:10;;;;;;;2.60;2.37;;;6.40;99.90;;;7.11;100.00;98579.75;4920508;29;20475;-79
2023/05/04 04:42:38;;;;;;;4.80;2.90;;;6.40;99.90;;;7.13;100.00;98570.00;4921540;29;21048;-78
2023/05/04 04:45:10;;;;;;;2.80;2.43;;;6.40;99.90;;;7.14;100.00;98576.84;4923030;29;21715;-79
2023/05/04 04:47:39;;;;;;;4.30;3.03;;;6.40;99.90;;;7.15;100.00;98578.44;4923413;29;20914;-79
2023/05/04 04:50:10;;;;;;;3.07;2.57;;;6.40;99.90;;;7.14;100.00;98583.81;4924076;29;20853;-79
2023/05/04 04:52:40;;;;;;;5.83;2.87;;;6.40;99.90;;;7.15;100.00;98575.84;4923421;29;20474;-80
2023/05/04 04:55:09;;;;;;;6.37;2.67;;;6.40;99.90;;;7.17;100.00;98575.72;4924053;29;20467;-81
2023/05/04 04:57:38;;;;;;;6.43;2.90;;;6.40;99.90;;;7.15;100.00;98575.84;4922298;29;20839;-79
2023/05/04 05:00:10;;;;;;;6.20;3.00;;;6.40;99.90;;;7.13;100.00;98577.81;4924514;29;20463;-80
2023/05/04 05:02:39;;;;;;;7.90;2.80;;;6.40;99.90;;;7.14;100.00;98578.63;4923903;29;20477;-79
2023/05/04 05:05:10;;;;;;;6.23;2.90;;;6.40;99.90;;;7.19;100.00;98576.38;4924440;29;20486;-80
2023/05/04 05:07:38;;;;;;;13.00;2.80;;;6.50;99.90;;;7.24;100.00;98574.13;4937678;29;20498;-83
2023/05/04 05:10:09;;;;;;;6.70;3.33;;;6.50;99.90;;;7.24;100.00;98569.75;4924267;29;20506;-79
2023/05/04 05:12:38;;;;;;;3.43;2.70;;;6.50;99.90;;;7.28;100.00;98570.25;4922730;29;20478;-80
2023/05/04 05:15:08;;;;;;;3.53;2.80;;;6.50;99.90;;;7.31;100.00;98575.97;4924784;29;20484;-80
2023/05/04 05:17:38;;;;;;;2.93;2.60;;;6.60;99.90;;;7.34;100.00;98573.06;4920516;29;21229;-79
2023/05/04 05:20:10;;;;;;;6.27;3.00;;;6.60;99.90;;;7.35;100.00;98574.72;4923145;29;20466;-79
2023/05/04 05:22:39;;;;;;;3.77;2.47;;;6.70;99.90;;;7.38;100.00;98573.56;4922866;29;21046;-79
2023/05/04 05:25:08;;;;;;;4.43;2.80;;;6.70;99.90;;;7.42;100.00;98569.69;4922401;29;20478;-79
2023/05/04 05:27:38;;;;;;;4.67;2.87;;;6.70;99.90;;;7.41;100.00;98574.09;4922766;29;20588;-79
2023/05/04 05:30:08;;;;;;;5.17;2.60;;;6.70;99.90;;;7.44;100.00;98573.78;4923892;29;20486;-80
2023/05/04 05:32:37;;;;;;;3.27;2.60;;;6.80;99.90;;;7.50;100.00;98574.94;4924382;29;20469;-80
2023/05/04 05:35:08;;;;;;;4.50;2.53;;;6.80;99.90;;;7.53;100.00;98575.44;4925450;29;20565;-80
2023/05/04 05:37:38;;;;;;;9.83;4.93;;;6.80;99.90;;;7.56;100.00;98575.16;4925966;29;20470;-80
2023/05/04 05:40:09;;;;;;;2.57;2.37;;;6.80;99.90;;;7.57;100.00;98576.75;4925208;29;20466;-80
2023/05/04 05:42:38;;;;;;;4.37;2.47;;;6.90;99.90;;;7.62;100.00;98572.88;4926166;29;20534;-81
2023/05/04 05:45:09;;;;;;;3.50;2.97;;;6.90;99.90;;;7.64;100.00;98578.75;4926123;29;21028;-79
2023/05/04 05:47:38;;;;;;;4.93;3.10;;;6.90;99.90;;;7.66;100.00;98579.41;4928816;29;20934;-79
2023/05/04 05:50:08;;;;;;;5.07;3.03;;;7.00;99.90;;;7.69;100.00;98577.31;4927177;29;20464;-80
2023/05/04 05:52:38;;;;;;;8.00;2.70;;;7.00;99.90;;;7.71;100.00;98584.97;4925343;29;20474;-80
2023/05/04 05:55:09;;;;;;;5.23;3.30;;;7.00;99.90;;;7.73;100.00;98583.84;4924561;29;20982;-82
2023/05/04 05:57:38;;;;;;;7.77;4.37;;;7.00;99.90;;;7.79;100.00;98580.63;4924636;29;20497;-80
2023/05/04 06:00:09;;;;;;;9.40;3.33;;;7.00;99.90;;;7.84;100.00;98572.34;4923064;29;20509;-80
2023/05/04 06:02:38;;;;;;;9.87;2.70;;;7.10;99.90;;;7.85;100.00;98569.56;4924185;29;20489;-78
2023/05/04 06:05:09;;;;;;;3.93;2.60;;;7.10;99.90;;;7.88;100.00;98579.66;4921008;29;20545;-81
2023/05/04 06:07:39;;;;;;;16.63;8.00;;;7.10;99.90;;;7.94;100.00;98573.03;4923969;29;20463;-80
2023/05/04 06:10:09;;;;;;;9.17;4.80;;;7.20;99.90;;;7.99;100.00;98571.59;4924558;29;20564;-79
2023/05/04 06:12:38;;;;;;;5.00;3.23;;;7.30;99.90;;;8.04;100.00;98571.94;4923944;29;20477;-79
2023/05/04 06:15:08;;;;;;;5.43;2.80;;;7.30;99.90;;;8.08;100.00;98565.44;4927497;29;20498;-80
2023/05/04 06:17:37;;;;;;;4.20;2.80;;;7.30;99.90;;;8.11;100.00;98572.13;4925608;29;20466;-78
2023/05/04 06:20:08;;;;;;;3.93;2.70;;;7.40;99.90;;;8.15;100.00;98560.41;4941127;28;20470;-79
2023/05/04 06:22:38;;;;;;;5.20;2.70;;;7.40;99.90;;;8.21;100.00;98562.38;4925503;29;20466;-79
2023/05/04 06:25:07;;;;;;;4.17;3.40;;;7.50;99.90;;;8.29;100.00;98559.00;4925231;29;20942;-79
2023/05/04 06:27:37;;;;;;;3.13;2.67;;;7.50;99.90;;;8.36;100.00;98560.81;4925782;29;20498;-79
2023/05/04 06:30:09;;;;;;;5.77;2.97;;;7.60;99.90;;;8.44;100.00;98560.00;4923799;29;20581;-79
2023/05/04 06:32:37;;;;;;;4.03;2.97;;;7.60;99.90;;;8.50;100.00;98570.59;4926750;29;20471;-79
2023/05/04 06:35:09;;;;;;;3.10;2.40;;;7.70;99.90;;;8.58;100.00;98560.19;4925671;29;20793;-79
2023/05/04 06:37:39;;;;;;;9.83;3.90;;;7.80;99.90;;;8.67;100.00;98555.81;4925577;29;20473;-79
2023/05/04 06:40:10;;;;;;;3.40;2.70;;;7.90;99.90;;;8.77;100.00;98556.47;4925140;29;20830;-79
2023/05/04 06:42:39;;;;;;;17.33;3.77;;;8.00;99.90;;;8.85;100.00;98553.03;4922815;29;20477;-80
2023/05/04 06:45:08;;;;;;;4.40;2.70;;;8.10;99.90;;;8.94;100.00;98552.03;4924396;29;20467;-82
2023/05/04 06:47:38;;;;;;;44.73;21.13;;;8.20;99.90;;;9.01;100.00;98548.63;4923913;29;20561;-80
2023/05/04 06:50:09;;;;;;;8.53;4.40;;;8.30;99.90;;;9.11;100.00;98553.66;4924941;29;20537;-75
2023/05/04 06:52:45;;;;;;;4.30;3.23;;;8.40;99.90;;;9.22;100.00;98549.91;4926245;29;20546;-76
2023/05/04 06:55:14;;;;;;;10.13;3.87;;;8.40;99.90;;;9.30;100.00;98545.47;4925288;29;20514;-76
2023/05/04 06:57:43;;;;;;;5.13;2.70;;;8.50;99.90;;;9.39;100.00;98538.44;4924370;29;20566;-75
2023/05/04 07:00:13;;;;;;;9.27;4.03;;;8.70;99.90;;;9.47;100.00;98544.47;4924781;29;20463;-75
2023/05/04 07:02:42;;;;;;;4.30;2.80;;;8.80;99.90;;;9.57;100.00;98545.09;4926851;29;20581;-75
2023/05/04 07:05:12;;;;;;;6.40;2.80;;;8.90;99.90;;;9.67;100.00;98544.88;4925179;29;20479;-75
2023/05/04 07:07:42;;;;;;;5.83;2.80;;;9.00;99.90;;;9.74;100.00;98545.03;4921134;29;20477;-76
2023/05/04 07:10:11;;;;;;;3.53;2.70;;;9.10;99.90;;;9.85;100.00;98544.66;4923210;29;20545;-76
2023/05/04 07:12:40;;;;;;;16.40;3.60;;;9.10;99.90;;;9.95;100.00;98542.66;4918727;29;20991;-75
2023/05/04 07:15:10;;;;;;;4.03;2.83;;;9.20;99.90;;;10.03;100.00;98538.19;4922488;29;20462;-80
2023/05/04 07:17:39;;;;;;;7.10;3.60;;;9.40;99.90;;;10.13;100.00;98538.00;4924122;29;20466;-75
2023/05/04 07:20:10;;;;;;;4.80;3.40;;;9.50;99.90;;;10.26;100.00;98530.41;4923206;29;20922;-75
2023/05/04 07:22:38;;;;;;;7.10;4.47;;;9.50;99.90;;;10.35;100.00;98526.75;4921686;29;20844;-76
2023/05/04 07:25:09;;;;;;;5.50;3.50;;;9.70;99.90;;;10.45;100.00;98522.09;4922376;29;20541;-75
2023/05/04 07:27:42;;;;;;;7.40;3.13;;;9.90;99.90;;;10.57;100.00;98517.28;4921529;29;20484;-76
2023/05/04 07:30:12;;;;;;;6.27;3.60;;;9.90;99.90;;;10.68;100.00;98514.28;4922811;29;20588;-75
2023/05/04 07:32:42;;;;;;;6.63;3.00;;;10.00;99.90;;;10.78;100.00;98514.84;4921579;29;20972;-75
2023/05/04 07:35:14;;;;;;;11.43;3.87;;;10.20;99.90;;;10.89;100.00;98521.44;4923352;29;20477;-75
2023/05/04 07:37:43;;;;;;;7.60;3.00;;;10.30;99.90;;;10.98;100.00;98520.38;4922797;29;20864;-75
2023/05/04 07:40:15;;;;;;;8.13;4.27;;;10.40;99.90;;;11.08;100.00;98505.22;4921861;29;21013;-76
2023/05/04 07:42:44;;;;;;;7.60;4.33;;;10.50;99.90;;;11.22;100.00;98507.06;4922223;29;20476;-76
2023/05/04 07:45:17;;;;;;;16.03;3.80;;;10.60;99.90;;;11.34;100.00;98503.00;4921855;29;20517;-76
2023/05/04 07:47:45;;;;;;;5.87;3.37;;;10.80;99.90;;;11.45;100.00;98496.50;4923937;29;20879;-76
2023/05/04 07:50:16;;;;;;;5.50;3.80;;;10.90;99.90;;;11.59;100.00;98496.47;4924727;29;20604;-76
2023/05/04 07:52:48;;;;;;;4.80;3.40;;;11.20;99.90;;;11.72;100.00;98487.19;4923359;29;20473;-76
2023/05/04 07:55:18;;;;;;;4.80;4.00;;;11.20;99.90;;;11.83;100.00;98484.13;4893216;29;20893;-76
2023/05/04 07:57:47;;;;;;;6.23;3.73;;;11.30;99.90;;;11.92;100.00;98485.63;4922807;29;21055;-76
2023/05/04 08:00:25;;;;;;;4.63;3.03;;;11.50;99.90;;;12.02;100.00;98481.72;4922466;29;20562;-76
2023/05/04 08:02:57;;;;;;;5.30;3.60;;;11.60;99.90;;;12.10;100.00;98486.03;4920919;29;20499;-76
2023/05/04 08:05:27;;;;;;;11.73;3.30;;;11.60;99.90;;;12.19;100.00;98491.97;4920290;29;20478;-75
2023/05/04 08:07:57;;;;;;;10.97;4.33;;;11.60;99.90;;;12.29;100.00;98487.22;4891671;29;20465;-76
2023/05/04 08:10:27;;;;;;;7.57;4.23;;;11.70;99.90;;;12.38;100.00;98489.56;4920748;29;21009;-75
2023/05/04 08:12:59;;;;;;;5.73;3.70;;;11.90;99.90;;;12.47;100.00;98488.41;4922511;29;20470;-75
2023/05/04 08:15:31;;;;;;;8.83;4.47;;;11.90;99.90;;;12.56;100.00;98476.78;4922193;29;20474;-75
2023/05/04 08:18:00;;;;;;;8.67;4.27;;;12.10;99.90;;;12.67;100.00;98483.34;4923381;29;20502;-76
2023/05/04 08:20:31;;;;;;;14.73;3.63;;;12.20;99.90;;;12.74;100.00;98476.31;4921504;29;20478;-76
2023/05/04 08:23:02;;;;;;;7.90;4.00;;;12.20;99.90;;;12.84;100.00;98478.66;4922031;29;20478;-75
2023/05/04 08:25:37;;;;;;;7.10;3.80;;;12.40;99.90;;;12.93;100.00;98477.50;4923363;29;20521;-76
2023/05/04 08:28:06;;;;;;;6.97;3.83;;;12.40;99.90;;;13.02;100.00;98476.31;4904191;29;20494;-75
2023/05/04 08:30:36;;;;;;;11.53;4.40;;;12.60;99.90;;;13.07;100.00;98464.25;4922238;29;20924;-76
2023/05/04 08:33:07;;;;;;;7.83;4.60;;;12.60;99.90;;;13.18;100.00;98460.31;4920046;29;20482;-76
2023/05/04 08:35:36;;;;;;;5.23;3.73;;;12.70;99.90;;;13.26;100.00;98456.75;4920018;29;20924;-76
2023/05/04 08:38:05;;;;;;;4.67;3.63;;;12.70;99.90;;;13.37;100.00;98451.72;4936041;29;20533;-75
2023/05/04 08:40:35;;;;;;;8.47;4.20;;;13.00;99.90;;;13.48;100.00;98459.06;4918472;29;22418;-75
2023/05/04 08:43:04;;;;;;;7.40;4.07;;;12.90;99.90;;;13.55;100.00;98459.91;4923090;29;20514;-75
2023/05/04 08:45:33;;;;;;;6.13;3.93;;;13.00;99.90;;;13.64;100.00;98451.88;4937210;29;20561;-75
2023/05/04 08:48:02;;;;;;;6.73;3.73;;;13.20;99.90;;;13.74;100.00;98454.94;4923599;29;20475;-75
2023/05/04 08:50:33;;;;;;;8.30;3.70;;;13.30;99.90;;;13.83;100.00;98449.28;4923756;29;20510;-76
2023/05/04 08:53:05;;;;;;;6.90;3.60;;;13.50;99.90;;;13.92;100.00;98440.22;4923264;29;20529;-76
2023/05/04 08:55:41;;;;;;;6.63;4.30;;;13.50;99.90;;;14.01;100.00;98446.13;4923045;29;20587;-75
2023/05/04 08:58:13;;;;;;;5.27;4.00;;;13.60;99.90;;;14.05;100.00;98436.81;4923804;29;20529;-76
2023/05/04 09:00:44;;;;;;;4.63;3.80;;;13.60;99.90;;;14.16;100.00;98438.84;4922574;29;20470;-76
2023/05/04 09:03:18;;;;;;;9.33;4.03;;;13.70;99.90;;;14.24;100.00;98436.03;4926374;29;20473;-75
2023/05/04 09:05:49;;;;;;;5.57;4.10;;;13.80;99.90;;;14.31;100.00;98441.28;4928093;29;20463;-76
2023/05/04 09:08:19;;;;;;;7.10;3.80;;;13.90;99.90;;;14.38;100.00;98429.81;4924520;29;20581;-80
2023/05/04 09:10:49;;;;;;;6.70;4.53;;;14.00;99.90;;;14.45;100.00;98435.88;4927364;29;20544;-75
2023/05/04 09:13:18;;;;;;;5.53;3.70;;;14.10;99.90;;;14.54;100.00;98431.25;4926628;29;20470;-76
2023/05/04 09:15:56;;;;;;;5.00;3.50;;;14.00;99.90;;;14.59;100.00;98416.44;4925653;29;20470;-75
2023/05/04 09:18:37;;;;;;;8.07;3.97;;;14.10;99.90;;;14.70;99.81;98420.28;4926891;29;20574;-76
2023/05/04 09:21:06;;;;;;;7.10;3.23;;;14.30;99.90;;;14.79;99.43;98415.59;4924750;29;20498;-75
2023/05/04 09:23:47;;;;;;;6.90;3.67;;;14.30;99.90;;;14.84;99.23;98416.63;4922896;29;20466;-79
2023/05/04 09:26:27;;;;;;;5.33;3.77;;;14.40;99.90;;;14.93;99.56;98425.94;4924795;29;21193;-76
2023/05/04 09:28:57;;;;;;;15.83;5.63;;;14.50;99.90;;;15.00;99.82;98416.19;4923744;29;20879;-75
2023/05/04 09:31:26;;;;;;;4.40;3.07;;;14.40;99.90;;;15.07;99.32;98406.44;4923246;29;21103;-75
2023/05/04 09:33:56;;;;;;;6.00;3.30;;;14.50;99.90;;;15.19;99.44;98409.28;4922057;29;20954;-75
2023/05/04 09:36:25;;;;;;;3.47;2.97;;;14.70;99.90;;;15.33;97.73;98415.31;4924263;29;20463;-75
2023/05/04 09:38:55;;;;;;;4.30;3.17;;;14.90;99.90;;;15.40;96.24;98406.34;4924146;29;20521;-77
2023/05/04 09:41:33;;;;;;;4.93;3.30;;;15.00;99.90;;;15.51;96.65;98403.13;4922738;29;20498;-76
2023/05/04 09:44:02;;;;;;;6.80;4.10;;;15.10;99.90;;;15.63;94.39;98397.97;4921618;29;20485;-76
2023/05/04 09:46:31;;;;;;;7.20;3.23;;;15.20;99.90;;;15.73;93.10;98395.69;4926665;29;20470;-75
2023/05/04 09:48:59;;;;;;;6.47;3.80;;;15.30;99.90;;;15.78;92.63;98392.41;4924858;29;20467;-77
2023/05/04 09:51:28;;;;;;;4.10;3.40;;;15.40;99.90;;;15.84;92.02;98388.94;4921592;29;20505;-76
2023/05/04 09:54:02;;;;;;;11.00;2.93;;;15.40;99.90;;;15.90;90.77;98390.72;4925286;29;20474;-77
2023/05/04 09:56:46;;;;;;;5.50;3.70;;;15.50;99.90;;;16.03;90.16;98386.19;4926791;29;20477;-76
2023/05/04 09:59:18;;;;;;;7.50;3.03;;;15.60;99.90;;;16.13;90.85;98388.34;4926075;29;20552;-76
2023/05/04 10:01:47;;;;;;;4.03;2.80;;;15.70;99.90;;;16.17;87.21;98384.28;4924206;29;20470;-76
2023/05/04 10:04:17;;;;;;;3.80;3.00;;;15.80;99.90;;;16.22;85.04;98380.97;4925473;29;21240;-77
2023/05/04 10:06:46;;;;;;;7.10;3.50;;;15.80;99.50;;;16.29;85.92;98368.53;4923954;29;20660;-76
2023/05/04 10:09:16;;;;;;;7.30;3.80;;;15.90;99.90;;;16.36;87.31;98367.47;4925656;29;20466;-79
2023/05/04 10:11:46;;;;;;;4.60;3.67;;;15.90;99.90;;;16.35;87.43;98373.75;4922627;29;20506;-76
2023/05/04 10:14:15;;;;;;;7.00;3.60;;;15.90;99.90;;;16.41;88.13;98361.53;4922973;29;20486;-77
2023/05/04 10:16:57;;;;;;;7.93;5.00;;;16.00;99.90;;;16.47;87.50;98361.47;4922959;29;20555;-77
2023/05/04 10:19:50;;;;;;;5.80;3.40;;;16.00;99.90;;;16.52;87.46;98364.25;4921684;29;20467;-78
2023/05/04 10:23:02;;;;;;;3.60;3.17;;;16.10;99.90;;;16.56;86.97;98357.56;4923494;29;20525;-77
2023/05/04 10:26:08;;;;;;;8.00;4.00;;;16.00;99.90;;;16.62;85.84;98358.53;4924248;29;21036;-76
2023/05/04 10:29:11;;;;;;;11.13;3.77;;;16.20;99.90;;;16.66;86.26;98345.72;4924263;29;20470;-78
2023/05/04 10:31:41;;;;;;;4.50;3.23;;;16.20;99.90;;;16.72;86.76;98343.00;4926992;29;21184;-76
2023/05/04 10:34:10;;;;;;;6.70;4.07;;;16.20;99.90;;;16.79;86.82;98338.47;4925792;29;20486;-78
2023/05/04 10:36:40;;;;;;;14.57;3.57;;;16.40;99.90;;;16.86;86.47;98338.38;4926750;29;20525;-77